sensor_id;sensor_type;location;lat;lon;timestamp;temperature;humidity
57390;DHT22;43217;52.694;6.214;2023-06-01T00:02:03;12.30;99.90
57390;DHT22;43217;52.694;6.214;2023-06-01T00:04:28;12.30;99.90
57390;DHT22;43217;52.694;6.214;2023-06-01T00:06:54;12.20;99.90
57390;DHT22;43217;52.694;6.214;2023-06-01T00:09:20;12.30;99.90
57390;DHT22;43217;52.694;6.214;2023-06-01T00:11:45;12.20;99.90
57390;DHT22;43217;52.694;6.214;2023-06-01T00:14:11;12.20;99.90
57390;DHT22;43217;52.694;6.214;2023-06-01T00:16:37;12.20;99.90
57390;DHT22;43217;52.694;6.214;2023-06-01T00:19:02;12.20;99.90
57390;DHT22;43217;52.694;6.214;2023-06-01T00:21:29;12.20;99.90
57390;DHT22;43217;52.694;6.214;2023-06-01T00:23:58;12.20;99.90
57390;DHT22;43217;52.694;6.214;2023-06-01T00:26:24;12.20;99.90
57390;DHT22;43217;52.694;6.214;2023-06-01T00:28:51;12.20;99.90
57390;DHT22;43217;52.694;6.214;2023-06-01T00:31:16;12.20;99.90
57390;DHT22;43217;52.694;6.214;2023-06-01T00:33:42;12.20;99.90
57390;DHT22;43217;52.694;6.214;2023-06-01T00:36:08;12.30;99.90
57390;DHT22;43217;52.694;6.214;2023-06-01T00:38:33;12.30;99.90
57390;DHT22;43217;52.694;6.214;2023-06-01T00:40:59;12.30;99.90
57390;DHT22;43217;52.694;6.214;2023-06-01T00:43:25;12.30;99.90
57390;DHT22;43217;52.694;6.214;2023-06-01T00:45:50;12.30;99.90
57390;DHT22;43217;52.694;6.214;2023-06-01T00:48:16;12.30;99.90
57390;DHT22;43217;52.694;6.214;2023-06-01T00:50:42;12.30;99.90
57390;DHT22;43217;52.694;6.214;2023-06-01T00:53:13;12.30;99.90
57390;DHT22;43217;52.694;6.214;2023-06-01T00:55:41;12.30;99.90
57390;DHT22;43217;52.694;6.214;2023-06-01T00:58:07;12.30;99.90
57390;DHT22;43217;52.694;6.214;2023-06-01T01:00:33;12.30;99.90
57390;DHT22;43217;52.694;6.214;2023-06-01T01:02:59;12.30;99.90
57390;DHT22;43217;52.694;6.214;2023-06-01T01:05:35;12.30;99.90
57390;DHT22;43217;52.694;6.214;2023-06-01T01:08:12;12.30;99.90
57390;DHT22;43217;52.694;6.214;2023-06-01T01:10:50;12.30;99.90
57390;DHT22;43217;52.694;6.214;2023-06-01T01:13:26;12.30;99.90
57390;DHT22;43217;52.694;6.214;2023-06-01T01:18:44;12.20;99.90
57390;DHT22;43217;52.694;6.214;2023-06-01T01:21:12;12.10;99.90
57390;DHT22;43217;52.694;6.214;2023-06-01T01:27:04;12.20;99.90
57390;DHT22;43217;52.694;6.214;2023-06-01T01:29:32;12.20;99.90
57390;DHT22;43217;52.694;6.214;2023-06-01T01:32:00;12.20;99.90
57390;DHT22;43217;52.694;6.214;2023-06-01T01:34:28;12.20;99.90
57390;DHT22;43217;52.694;6.214;2023-06-01T01:36:55;12.20;99.90
57390;DHT22;43217;52.694;6.214;2023-06-01T01:39:21;12.20;99.90
57390;DHT22;43217;52.694;6.214;2023-06-01T01:41:47;12.10;99.90
57390;DHT22;43217;52.694;6.214;2023-06-01T01:44:14;12.00;99.90
57390;DHT22;43217;52.694;6.214;2023-06-01T01:49:26;12.00;99.90
57390;DHT22;43217;52.694;6.214;2023-06-01T01:54:45;11.80;99.90
57390;DHT22;43217;52.694;6.214;2023-06-01T01:57:14;11.80;99.90
57390;DHT22;43217;52.694;6.214;2023-06-01T01:59:42;11.90;99.90
57390;DHT22;43217;52.694;6.214;2023-06-01T02:02:08;12.00;99.90
57390;DHT22;43217;52.694;6.214;2023-06-01T02:04:42;12.00;99.90
57390;DHT22;43217;52.694;6.214;2023-06-01T02:07:08;12.00;99.90
57390;DHT22;43217;52.694;6.214;2023-06-01T02:09:34;12.00;99.90
57390;DHT22;43217;52.694;6.214;2023-06-01T02:12:00;11.90;99.90
57390;DHT22;43217;52.694;6.214;2023-06-01T02:14:27;11.90;99.90
57390;DHT22;43217;52.694;6.214;2023-06-01T02:16:53;11.90;99.90
57390;DHT22;43217;52.694;6.214;2023-06-01T02:19:19;11.90;99.90
57390;DHT22;43217;52.694;6.214;2023-06-01T02:21:45;11.90;99.90
57390;DHT22;43217;52.694;6.214;2023-06-01T02:24:11;11.90;99.90
57390;DHT22;43217;52.694;6.214;2023-06-01T02:26:38;11.90;99.90
57390;DHT22;43217;52.694;6.214;2023-06-01T02:29:03;11.90;99.90
57390;DHT22;43217;52.694;6.214;2023-06-01T02:31:33;12.00;99.90
57390;DHT22;43217;52.694;6.214;2023-06-01T02:33:59;11.90;99.90
57390;DHT22;43217;52.694;6.214;2023-06-01T02:36:29;11.90;99.90
57390;DHT22;43217;52.694;6.214;2023-06-01T02:38:55;12.00;99.90
57390;DHT22;43217;52.694;6.214;2023-06-01T02:41:20;11.90;99.90
57390;DHT22;43217;52.694;6.214;2023-06-01T02:43:47;12.00;99.90
57390;DHT22;43217;52.694;6.214;2023-06-01T02:46:13;12.00;99.90
57390;DHT22;43217;52.694;6.214;2023-06-01T02:48:38;12.00;99.90
57390;DHT22;43217;52.694;6.214;2023-06-01T02:51:04;12.00;99.90
57390;DHT22;43217;52.694;6.214;2023-06-01T02:53:30;12.00;99.90
57390;DHT22;43217;52.694;6.214;2023-06-01T02:55:56;12.00;99.90
57390;DHT22;43217;52.694;6.214;2023-06-01T02:58:22;12.00;99.90
57390;DHT22;43217;52.694;6.214;2023-06-01T03:00:48;12.00;99.90
57390;DHT22;43217;52.694;6.214;2023-06-01T03:03:13;12.00;99.90
57390;DHT22;43217;52.694;6.214;2023-06-01T03:05:39;12.00;99.90
57390;DHT22;43217;52.694;6.214;2023-06-01T03:08:08;12.00;99.90
57390;DHT22;43217;52.694;6.214;2023-06-01T03:10:34;12.00;99.90
57390;DHT22;43217;52.694;6.214;2023-06-01T03:13:00;12.00;99.90
57390;DHT22;43217;52.694;6.214;2023-06-01T03:15:25;11.90;99.90
57390;DHT22;43217;52.694;6.214;2023-06-01T03:17:53;11.90;99.90
57390;DHT22;43217;52.694;6.214;2023-06-01T03:20:18;11.80;99.90
57390;DHT22;43217;52.694;6.214;2023-06-01T03:22:45;11.80;99.90
57390;DHT22;43217;52.694;6.214;2023-06-01T03:25:11;11.80;99.90
57390;DHT22;43217;52.694;6.214;2023-06-01T03:27:41;11.90;99.90
57390;DHT22;43217;52.694;6.214;2023-06-01T03:30:07;11.80;99.90
57390;DHT22;43217;52.694;6.214;2023-06-01T03:32:40;11.80;99.90
57390;DHT22;43217;52.694;6.214;2023-06-01T03:35:07;11.90;99.90
57390;DHT22;43217;52.694;6.214;2023-06-01T03:37:34;11.80;99.90
57390;DHT22;43217;52.694;6.214;2023-06-01T03:40:01;11.90;99.90
57390;DHT22;43217;52.694;6.214;2023-06-01T03:42:27;11.90;99.90
57390;DHT22;43217;52.694;6.214;2023-06-01T03:44:52;11.80;99.90
57390;DHT22;43217;52.694;6.214;2023-06-01T03:47:18;11.90;99.90
57390;DHT22;43217;52.694;6.214;2023-06-01T03:49:43;11.90;99.90
57390;DHT22;43217;52.694;6.214;2023-06-01T03:52:09;11.90;99.90
57390;DHT22;43217;52.694;6.214;2023-06-01T03:54:35;11.80;99.90
57390;DHT22;43217;52.694;6.214;2023-06-01T03:57:01;11.80;99.90
57390;DHT22;43217;52.694;6.214;2023-06-01T03:59:26;11.80;99.90
57390;DHT22;43217;52.694;6.214;2023-06-01T04:01:53;11.80;99.90
57390;DHT22;43217;52.694;6.214;2023-06-01T04:04:23;11.80;99.90
57390;DHT22;43217;52.694;6.214;2023-06-01T04:06:50;11.80;99.90
57390;DHT22;43217;52.694;6.214;2023-06-01T04:09:17;11.80;99.90
57390;DHT22;43217;52.694;6.214;2023-06-01T04:11:44;11.80;99.90
57390;DHT22;43217;52.694;6.214;2023-06-01T04:14:09;11.80;99.90
57390;DHT22;43217;52.694;6.214;2023-06-01T04:16:35;11.80;99.90
57390;DHT22;43217;52.694;6.214;2023-06-01T04:19:01;11.80;99.90
57390;DHT22;43217;52.694;6.214;2023-06-01T04:21:27;11.80;99.90
57390;DHT22;43217;52.694;6.214;2023-06-01T04:23:55;11.90;99.90
57390;DHT22;43217;52.694;6.214;2023-06-01T04:26:20;11.90;99.90
57390;DHT22;43217;52.694;6.214;2023-06-01T04:28:46;11.90;99.90
57390;DHT22;43217;52.694;6.214;2023-06-01T04:31:15;12.00;99.90
57390;DHT22;43217;52.694;6.214;2023-06-01T04:33:46;12.00;99.90
57390;DHT22;43217;52.694;6.214;2023-06-01T04:36:24;12.00;99.90
57390;DHT22;43217;52.694;6.214;2023-06-01T04:38:50;12.10;99.90
57390;DHT22;43217;52.694;6.214;2023-06-01T04:41:19;12.10;99.90
57390;DHT22;43217;52.694;6.214;2023-06-01T04:43:47;12.10;99.90
57390;DHT22;43217;52.694;6.214;2023-06-01T04:46:18;12.10;99.90
57390;DHT22;43217;52.694;6.214;2023-06-01T04:48:44;12.00;99.90
57390;DHT22;43217;52.694;6.214;2023-06-01T04:51:10;12.00;99.90
57390;DHT22;43217;52.694;6.214;2023-06-01T04:53:36;12.00;99.90
57390;DHT22;43217;52.694;6.214;2023-06-01T04:56:01;12.00;99.90
57390;DHT22;43217;52.694;6.214;2023-06-01T04:58:27;12.00;99.90
57390;DHT22;43217;52.694;6.214;2023-06-01T05:00:52;12.10;99.90
57390;DHT22;43217;52.694;6.214;2023-06-01T05:03:20;12.10;99.90
57390;DHT22;43217;52.694;6.214;2023-06-01T05:05:46;12.10;99.90
57390;DHT22;43217;52.694;6.214;2023-06-01T05:08:11;12.10;99.90
57390;DHT22;43217;52.694;6.214;2023-06-01T05:10:38;12.10;99.90
57390;DHT22;43217;52.694;6.214;2023-06-01T05:13:04;12.20;99.90
57390;DHT22;43217;52.694;6.214;2023-06-01T05:15:31;12.20;99.90
57390;DHT22;43217;52.694;6.214;2023-06-01T05:17:56;12.20;99.90
57390;DHT22;43217;52.694;6.214;2023-06-01T05:20:22;12.20;99.90
57390;DHT22;43217;52.694;6.214;2023-06-01T05:22:47;12.20;99.90
57390;DHT22;43217;52.694;6.214;2023-06-01T05:25:13;12.20;99.90
57390;DHT22;43217;52.694;6.214;2023-06-01T05:27:39;12.30;99.90
57390;DHT22;43217;52.694;6.214;2023-06-01T05:30:05;12.30;99.90
57390;DHT22;43217;52.694;6.214;2023-06-01T05:32:32;12.30;99.90
57390;DHT22;43217;52.694;6.214;2023-06-01T05:34:57;12.20;99.90
57390;DHT22;43217;52.694;6.214;2023-06-01T05:37:23;12.30;99.90
57390;DHT22;43217;52.694;6.214;2023-06-01T05:39:48;12.30;99.90
57390;DHT22;43217;52.694;6.214;2023-06-01T05:42:14;12.30;99.90
57390;DHT22;43217;52.694;6.214;2023-06-01T05:44:40;12.30;99.90
57390;DHT22;43217;52.694;6.214;2023-06-01T05:47:05;12.30;99.90
57390;DHT22;43217;52.694;6.214;2023-06-01T05:49:31;12.40;99.90
57390;DHT22;43217;52.694;6.214;2023-06-01T05:51:57;12.40;99.90
57390;DHT22;43217;52.694;6.214;2023-06-01T05:54:23;12.40;99.90
57390;DHT22;43217;52.694;6.214;2023-06-01T05:56:49;12.40;99.90
57390;DHT22;43217;52.694;6.214;2023-06-01T05:59:15;12.40;99.90
57390;DHT22;43217;52.694;6.214;2023-06-01T06:01:42;12.40;99.90
57390;DHT22;43217;52.694;6.214;2023-06-01T06:04:09;12.40;99.90
57390;DHT22;43217;52.694;6.214;2023-06-01T06:06:36;12.40;99.90
57390;DHT22;43217;52.694;6.214;2023-06-01T06:09:02;12.50;99.90
57390;DHT22;43217;52.694;6.214;2023-06-01T06:11:30;12.60;99.90
57390;DHT22;43217;52.694;6.214;2023-06-01T06:13:56;12.60;99.90
57390;DHT22;43217;52.694;6.214;2023-06-01T06:16:21;12.60;99.90
57390;DHT22;43217;52.694;6.214;2023-06-01T06:18:47;12.60;99.90
57390;DHT22;43217;52.694;6.214;2023-06-01T06:21:13;12.70;99.90
57390;DHT22;43217;52.694;6.214;2023-06-01T06:23:38;12.70;99.90
57390;DHT22;43217;52.694;6.214;2023-06-01T06:26:05;12.70;99.90
57390;DHT22;43217;52.694;6.214;2023-06-01T06:28:31;12.80;99.90
57390;DHT22;43217;52.694;6.214;2023-06-01T06:30:57;12.80;99.90
57390;DHT22;43217;52.694;6.214;2023-06-01T06:33:23;12.80;99.90
57390;DHT22;43217;52.694;6.214;2023-06-01T06:35:49;12.80;99.90
57390;DHT22;43217;52.694;6.214;2023-06-01T06:38:14;12.80;99.90
57390;DHT22;43217;52.694;6.214;2023-06-01T06:40:42;12.80;99.90
57390;DHT22;43217;52.694;6.214;2023-06-01T06:43:07;12.90;99.90
57390;DHT22;43217;52.694;6.214;2023-06-01T06:45:33;12.90;99.90
57390;DHT22;43217;52.694;6.214;2023-06-01T06:47:58;12.90;99.90
57390;DHT22;43217;52.694;6.214;2023-06-01T06:50:24;13.00;99.90
57390;DHT22;43217;52.694;6.214;2023-06-01T06:52:50;13.00;99.90
57390;DHT22;43217;52.694;6.214;2023-06-01T06:55:15;13.00;99.90
57390;DHT22;43217;52.694;6.214;2023-06-01T06:57:41;13.00;99.90
57390;DHT22;43217;52.694;6.214;2023-06-01T07:00:07;13.10;99.90
57390;DHT22;43217;52.694;6.214;2023-06-01T07:02:34;13.10;99.90
57390;DHT22;43217;52.694;6.214;2023-06-01T07:05:00;13.10;99.90
57390;DHT22;43217;52.694;6.214;2023-06-01T07:07:26;13.10;99.90
57390;DHT22;43217;52.694;6.214;2023-06-01T07:09:51;13.20;99.90
57390;DHT22;43217;52.694;6.214;2023-06-01T07:12:18;13.30;99.90
57390;DHT22;43217;52.694;6.214;2023-06-01T07:14:44;13.40;99.90
57390;DHT22;43217;52.694;6.214;2023-06-01T07:17:09;13.50;99.90
57390;DHT22;43217;52.694;6.214;2023-06-01T07:19:35;13.50;99.90
57390;DHT22;43217;52.694;6.214;2023-06-01T07:22:01;13.60;99.90
57390;DHT22;43217;52.694;6.214;2023-06-01T07:24:26;13.60;99.90
57390;DHT22;43217;52.694;6.214;2023-06-01T07:26:53;13.50;99.90
57390;DHT22;43217;52.694;6.214;2023-06-01T07:29:20;13.50;99.90
57390;DHT22;43217;52.694;6.214;2023-06-01T07:31:46;13.50;99.90
57390;DHT22;43217;52.694;6.214;2023-06-01T07:34:12;13.50;99.90
57390;DHT22;43217;52.694;6.214;2023-06-01T07:36:37;13.50;99.90
57390;DHT22;43217;52.694;6.214;2023-06-01T07:39:04;13.60;99.90
57390;DHT22;43217;52.694;6.214;2023-06-01T07:41:34;13.60;99.90
57390;DHT22;43217;52.694;6.214;2023-06-01T07:43:59;13.70;99.90
57390;DHT22;43217;52.694;6.214;2023-06-01T07:46:25;13.80;99.90
57390;DHT22;43217;52.694;6.214;2023-06-01T07:48:51;13.90;99.90
57390;DHT22;43217;52.694;6.214;2023-06-01T07:51:17;14.00;99.90
57390;DHT22;43217;52.694;6.214;2023-06-01T07:53:42;14.10;99.90
57390;DHT22;43217;52.694;6.214;2023-06-01T07:56:08;14.20;99.90
57390;DHT22;43217;52.694;6.214;2023-06-01T07:58:34;14.20;99.90
57390;DHT22;43217;52.694;6.214;2023-06-01T08:01:01;14.20;99.90
57390;DHT22;43217;52.694;6.214;2023-06-01T08:03:26;14.20;99.90
57390;DHT22;43217;52.694;6.214;2023-06-01T08:05:52;14.20;99.90
57390;DHT22;43217;52.694;6.214;2023-06-01T08:08:24;14.10;99.90
57390;DHT22;43217;52.694;6.214;2023-06-01T08:10:50;14.10;99.90
57390;DHT22;43217;52.694;6.214;2023-06-01T08:13:17;14.30;99.90
57390;DHT22;43217;52.694;6.214;2023-06-01T08:15:44;14.30;99.90
57390;DHT22;43217;52.694;6.214;2023-06-01T08:18:13;14.30;99.90
57390;DHT22;43217;52.694;6.214;2023-06-01T08:20:39;14.40;99.90
57390;DHT22;43217;52.694;6.214;2023-06-01T08:23:05;14.50;99.90
57390;DHT22;43217;52.694;6.214;2023-06-01T08:25:31;14.50;99.90
57390;DHT22;43217;52.694;6.214;2023-06-01T08:27:56;14.60;99.90
57390;DHT22;43217;52.694;6.214;2023-06-01T08:30:25;14.50;99.90
57390;DHT22;43217;52.694;6.214;2023-06-01T08:32:50;14.60;99.90
57390;DHT22;43217;52.694;6.214;2023-06-01T08:35:17;14.70;99.90
57390;DHT22;43217;52.694;6.214;2023-06-01T08:37:44;14.90;99.90
57390;DHT22;43217;52.694;6.214;2023-06-01T08:40:10;14.90;99.90
57390;DHT22;43217;52.694;6.214;2023-06-01T08:45:11;14.90;99.90
57390;DHT22;43217;52.694;6.214;2023-06-01T08:47:39;14.90;99.90
57390;DHT22;43217;52.694;6.214;2023-06-01T08:50:06;14.90;99.90
57390;DHT22;43217;52.694;6.214;2023-06-01T08:52:34;15.00;99.90
57390;DHT22;43217;52.694;6.214;2023-06-01T08:55:02;15.10;99.90
57390;DHT22;43217;52.694;6.214;2023-06-01T08:57:29;15.00;99.90
57390;DHT22;43217;52.694;6.214;2023-06-01T08:59:55;15.00;99.90
57390;DHT22;43217;52.694;6.214;2023-06-01T09:02:22;15.00;99.90
57390;DHT22;43217;52.694;6.214;2023-06-01T09:04:47;15.10;99.90
57390;DHT22;43217;52.694;6.214;2023-06-01T09:07:13;15.10;99.90
57390;DHT22;43217;52.694;6.214;2023-06-01T09:09:39;15.20;99.90
57390;DHT22;43217;52.694;6.214;2023-06-01T09:12:21;15.20;99.90
57390;DHT22;43217;52.694;6.214;2023-06-01T09:14:49;15.20;99.90
57390;DHT22;43217;52.694;6.214;2023-06-01T09:17:21;15.20;99.90
57390;DHT22;43217;52.694;6.214;2023-06-01T09:19:49;15.30;99.90
57390;DHT22;43217;52.694;6.214;2023-06-01T09:22:15;15.30;99.90
57390;DHT22;43217;52.694;6.214;2023-06-01T09:24:41;15.30;99.90
57390;DHT22;43217;52.694;6.214;2023-06-01T09:27:19;15.40;99.90
57390;DHT22;43217;52.694;6.214;2023-06-01T09:29:58;15.50;99.90
57390;DHT22;43217;52.694;6.214;2023-06-01T09:32:26;15.60;99.90
57390;DHT22;43217;52.694;6.214;2023-06-01T09:34:52;15.60;99.90
57390;DHT22;43217;52.694;6.214;2023-06-01T09:37:20;15.50;99.90
57390;DHT22;43217;52.694;6.214;2023-06-01T09:39:46;15.50;99.90
57390;DHT22;43217;52.694;6.214;2023-06-01T09:42:11;15.50;99.90
57390;DHT22;43217;52.694;6.214;2023-06-01T09:44:39;15.50;99.90
57390;DHT22;43217;52.694;6.214;2023-06-01T09:47:07;15.60;99.90
57390;DHT22;43217;52.694;6.214;2023-06-01T09:49:42;15.60;99.90
57390;DHT22;43217;52.694;6.214;2023-06-01T09:52:14;15.60;99.90
57390;DHT22;43217;52.694;6.214;2023-06-01T09:54:44;15.70;99.90
57390;DHT22;43217;52.694;6.214;2023-06-01T09:57:10;15.60;99.90
57390;DHT22;43217;52.694;6.214;2023-06-01T09:59:42;15.60;99.90
57390;DHT22;43217;52.694;6.214;2023-06-01T10:02:12;15.60;99.90
57390;DHT22;43217;52.694;6.214;2023-06-01T10:04:40;15.60;99.90
57390;DHT22;43217;52.694;6.214;2023-06-01T10:07:06;15.60;99.90
57390;DHT22;43217;52.694;6.214;2023-06-01T10:09:33;15.70;99.90
57390;DHT22;43217;52.694;6.214;2023-06-01T10:12:01;15.70;99.90
57390;DHT22;43217;52.694;6.214;2023-06-01T10:14:27;15.50;99.90
57390;DHT22;43217;52.694;6.214;2023-06-01T10:16:53;15.40;99.90
57390;DHT22;43217;52.694;6.214;2023-06-01T10:19:21;15.30;99.90
57390;DHT22;43217;52.694;6.214;2023-06-01T10:21:47;15.30;99.90
57390;DHT22;43217;52.694;6.214;2023-06-01T10:24:14;15.20;99.90
57390;DHT22;43217;52.694;6.214;2023-06-01T10:27:01;15.10;99.90
57390;DHT22;43217;52.694;6.214;2023-06-01T10:29:31;15.10;99.90
57390;DHT22;43217;52.694;6.214;2023-06-01T10:31:57;15.20;99.90
57390;DHT22;43217;52.694;6.214;2023-06-01T10:34:43;15.20;99.90
57390;DHT22;43217;52.694;6.214;2023-06-01T10:37:15;15.30;99.90
57390;DHT22;43217;52.694;6.214;2023-06-01T10:39:41;15.20;99.90
57390;DHT22;43217;52.694;6.214;2023-06-01T10:47:05;15.20;99.90
57390;DHT22;43217;52.694;6.214;2023-06-01T10:52:28;15.00;99.90
57390;DHT22;43217;52.694;6.214;2023-06-01T10:54:56;14.90;99.90
57390;DHT22;43217;52.694;6.214;2023-06-01T10:57:23;14.80;99.90
57390;DHT22;43217;52.694;6.214;2023-06-01T11:05:42;14.70;99.90
57390;DHT22;43217;52.694;6.214;2023-06-01T11:18:47;15.00;99.90
57390;DHT22;43217;52.694;6.214;2023-06-01T11:21:28;15.00;99.90
57390;DHT22;43217;52.694;6.214;2023-06-01T11:23:55;15.10;99.90
57390;DHT22;43217;52.694;6.214;2023-06-01T11:26:29;15.20;99.90
57390;DHT22;43217;52.694;6.214;2023-06-01T11:29:24;15.20;99.90
57390;DHT22;43217;52.694;6.214;2023-06-01T11:34:24;15.20;99.90
57390;DHT22;43217;52.694;6.214;2023-06-01T11:36:52;15.20;99.90
57390;DHT22;43217;52.694;6.214;2023-06-01T11:39:22;15.30;99.90
57390;DHT22;43217;52.694;6.214;2023-06-01T11:41:50;15.50;99.90
57390;DHT22;43217;52.694;6.214;2023-06-01T11:44:16;15.50;99.90
57390;DHT22;43217;52.694;6.214;2023-06-01T11:46:55;15.60;99.90
57390;DHT22;43217;52.694;6.214;2023-06-01T11:49:22;15.70;99.90
57390;DHT22;43217;52.694;6.214;2023-06-01T11:51:48;15.70;99.90
57390;DHT22;43217;52.694;6.214;2023-06-01T11:54:14;15.60;99.90
57390;DHT22;43217;52.694;6.214;2023-06-01T11:56:39;15.60;99.90
57390;DHT22;43217;52.694;6.214;2023-06-01T11:59:06;15.60;99.90
57390;DHT22;43217;52.694;6.214;2023-06-01T12:01:35;15.60;99.90
57390;DHT22;43217;52.694;6.214;2023-06-01T12:04:03;15.60;99.90
57390;DHT22;43217;52.694;6.214;2023-06-01T12:06:29;15.60;99.90
57390;DHT22;43217;52.694;6.214;2023-06-01T12:08:56;15.60;99.90
57390;DHT22;43217;52.694;6.214;2023-06-01T12:11:25;15.70;99.90
57390;DHT22;43217;52.694;6.214;2023-06-01T12:13:54;15.70;99.90
57390;DHT22;43217;52.694;6.214;2023-06-01T12:16:21;15.80;99.90
57390;DHT22;43217;52.694;6.214;2023-06-01T12:18:47;15.80;99.90
57390;DHT22;43217;52.694;6.214;2023-06-01T12:21:13;15.70;99.90
57390;DHT22;43217;52.694;6.214;2023-06-01T12:23:39;15.80;99.90
57390;DHT22;43217;52.694;6.214;2023-06-01T12:26:05;15.90;99.90
57390;DHT22;43217;52.694;6.214;2023-06-01T12:28:49;16.00;99.90
57390;DHT22;43217;52.694;6.214;2023-06-01T12:31:17;16.10;99.90
57390;DHT22;43217;52.694;6.214;2023-06-01T12:33:43;16.10;99.90
57390;DHT22;43217;52.694;6.214;2023-06-01T12:36:10;16.10;99.90
57390;DHT22;43217;52.694;6.214;2023-06-01T12:38:50;16.10;99.90
57390;DHT22;43217;52.694;6.214;2023-06-01T12:41:16;16.20;99.90
57390;DHT22;43217;52.694;6.214;2023-06-01T12:43:47;16.30;99.90
57390;DHT22;43217;52.694;6.214;2023-06-01T12:46:28;16.40;99.90
57390;DHT22;43217;52.694;6.214;2023-06-01T12:49:16;16.40;99.90
57390;DHT22;43217;52.694;6.214;2023-06-01T12:51:45;16.40;99.90
57390;DHT22;43217;52.694;6.214;2023-06-01T12:54:11;16.30;99.90
57390;DHT22;43217;52.694;6.214;2023-06-01T12:56:37;16.30;99.90
57390;DHT22;43217;52.694;6.214;2023-06-01T12:59:03;16.20;99.90
57390;DHT22;43217;52.694;6.214;2023-06-01T13:01:29;16.20;99.90
57390;DHT22;43217;52.694;6.214;2023-06-01T13:03:55;16.40;99.90
57390;DHT22;43217;52.694;6.214;2023-06-01T13:06:22;16.50;99.90
57390;DHT22;43217;52.694;6.214;2023-06-01T13:08:48;16.60;99.90
57390;DHT22;43217;52.694;6.214;2023-06-01T13:11:14;16.70;99.90
57390;DHT22;43217;52.694;6.214;2023-06-01T13:13:40;16.70;99.90
57390;DHT22;43217;52.694;6.214;2023-06-01T13:16:06;16.70;99.90
57390;DHT22;43217;52.694;6.214;2023-06-01T13:18:32;16.80;99.90
57390;DHT22;43217;52.694;6.214;2023-06-01T13:20:58;16.80;99.90
57390;DHT22;43217;52.694;6.214;2023-06-01T13:23:24;16.90;99.90
57390;DHT22;43217;52.694;6.214;2023-06-01T13:25:49;17.00;99.90
57390;DHT22;43217;52.694;6.214;2023-06-01T13:28:15;17.00;99.90
57390;DHT22;43217;52.694;6.214;2023-06-01T13:30:41;17.00;99.90
57390;DHT22;43217;52.694;6.214;2023-06-01T13:33:08;17.00;99.90
57390;DHT22;43217;52.694;6.214;2023-06-01T13:35:34;17.00;99.90
57390;DHT22;43217;52.694;6.214;2023-06-01T13:38:00;17.00;99.90
57390;DHT22;43217;52.694;6.214;2023-06-01T13:40:25;16.90;99.90
57390;DHT22;43217;52.694;6.214;2023-06-01T13:42:52;16.90;99.90
57390;DHT22;43217;52.694;6.214;2023-06-01T13:45:21;16.90;99.90
57390;DHT22;43217;52.694;6.214;2023-06-01T13:47:47;16.90;99.90
57390;DHT22;43217;52.694;6.214;2023-06-01T13:50:14;16.80;99.90
57390;DHT22;43217;52.694;6.214;2023-06-01T13:52:40;16.70;99.90
57390;DHT22;43217;52.694;6.214;2023-06-01T13:55:06;16.60;99.90
57390;DHT22;43217;52.694;6.214;2023-06-01T13:57:33;16.60;99.90
57390;DHT22;43217;52.694;6.214;2023-06-01T13:59:59;16.60;99.90
57390;DHT22;43217;52.694;6.214;2023-06-01T14:02:24;16.50;99.90
57390;DHT22;43217;52.694;6.214;2023-06-01T14:04:50;16.50;99.90
57390;DHT22;43217;52.694;6.214;2023-06-01T14:07:15;16.60;99.90
57390;DHT22;43217;52.694;6.214;2023-06-01T14:09:41;16.60;99.90
57390;DHT22;43217;52.694;6.214;2023-06-01T14:12:07;16.60;99.90
57390;DHT22;43217;52.694;6.214;2023-06-01T14:14:33;16.70;99.90
57390;DHT22;43217;52.694;6.214;2023-06-01T14:16:59;16.80;99.90
57390;DHT22;43217;52.694;6.214;2023-06-01T14:19:24;16.80;99.90
57390;DHT22;43217;52.694;6.214;2023-06-01T14:21:52;16.80;99.90
57390;DHT22;43217;52.694;6.214;2023-06-01T14:24:18;16.70;99.90
57390;DHT22;43217;52.694;6.214;2023-06-01T14:26:43;16.70;99.90
57390;DHT22;43217;52.694;6.214;2023-06-01T14:29:09;16.70;99.90
57390;DHT22;43217;52.694;6.214;2023-06-01T14:31:35;16.70;99.90
57390;DHT22;43217;52.694;6.214;2023-06-01T14:34:00;16.70;99.90
57390;DHT22;43217;52.694;6.214;2023-06-01T14:36:26;16.50;99.90
57390;DHT22;43217;52.694;6.214;2023-06-01T14:38:51;16.40;99.90
57390;DHT22;43217;52.694;6.214;2023-06-01T14:41:17;16.40;99.90
57390;DHT22;43217;52.694;6.214;2023-06-01T14:43:43;16.40;99.90
57390;DHT22;43217;52.694;6.214;2023-06-01T14:46:08;16.50;99.90
57390;DHT22;43217;52.694;6.214;2023-06-01T14:48:34;16.40;99.90
57390;DHT22;43217;52.694;6.214;2023-06-01T14:50:59;16.30;99.90
57390;DHT22;43217;52.694;6.214;2023-06-01T14:53:25;16.20;99.90
57390;DHT22;43217;52.694;6.214;2023-06-01T14:55:51;16.10;99.90
57390;DHT22;43217;52.694;6.214;2023-06-01T14:58:16;16.10;99.90
57390;DHT22;43217;52.694;6.214;2023-06-01T15:00:42;16.20;99.90
57390;DHT22;43217;52.694;6.214;2023-06-01T15:03:07;16.10;99.90
57390;DHT22;43217;52.694;6.214;2023-06-01T15:05:33;16.10;99.90
57390;DHT22;43217;52.694;6.214;2023-06-01T15:07:59;16.10;99.90
57390;DHT22;43217;52.694;6.214;2023-06-01T15:10:25;16.10;99.90
57390;DHT22;43217;52.694;6.214;2023-06-01T15:12:51;16.00;99.90
57390;DHT22;43217;52.694;6.214;2023-06-01T15:15:17;15.90;99.90
57390;DHT22;43217;52.694;6.214;2023-06-01T15:17:43;15.80;99.90
57390;DHT22;43217;52.694;6.214;2023-06-01T15:20:09;15.80;99.90
57390;DHT22;43217;52.694;6.214;2023-06-01T15:22:35;15.80;99.90
57390;DHT22;43217;52.694;6.214;2023-06-01T15:25:00;15.70;99.90
57390;DHT22;43217;52.694;6.214;2023-06-01T15:27:26;15.60;99.90
57390;DHT22;43217;52.694;6.214;2023-06-01T15:29:51;15.50;99.90
57390;DHT22;43217;52.694;6.214;2023-06-01T15:32:17;15.50;99.90
57390;DHT22;43217;52.694;6.214;2023-06-01T15:34:43;15.50;99.90
57390;DHT22;43217;52.694;6.214;2023-06-01T15:37:09;15.40;99.90
57390;DHT22;43217;52.694;6.214;2023-06-01T15:39:35;15.40;99.90
57390;DHT22;43217;52.694;6.214;2023-06-01T15:42:06;15.40;99.90
57390;DHT22;43217;52.694;6.214;2023-06-01T15:44:32;15.40;99.90
57390;DHT22;43217;52.694;6.214;2023-06-01T15:46:57;15.40;99.90
57390;DHT22;43217;52.694;6.214;2023-06-01T15:49:23;15.40;99.90
57390;DHT22;43217;52.694;6.214;2023-06-01T15:51:49;15.40;99.90
57390;DHT22;43217;52.694;6.214;2023-06-01T15:54:16;15.40;99.90
57390;DHT22;43217;52.694;6.214;2023-06-01T15:56:44;15.40;99.90
57390;DHT22;43217;52.694;6.214;2023-06-01T15:59:10;15.30;99.90
57390;DHT22;43217;52.694;6.214;2023-06-01T16:01:36;15.20;99.90
57390;DHT22;43217;52.694;6.214;2023-06-01T16:04:01;15.30;99.90
57390;DHT22;43217;52.694;6.214;2023-06-01T16:06:27;15.30;99.90
57390;DHT22;43217;52.694;6.214;2023-06-01T16:08:53;15.30;99.90
57390;DHT22;43217;52.694;6.214;2023-06-01T16:11:19;15.20;99.90